Terminal Aerodrome Forecast
Issued by NWS Blacksburg, VA

Home | Current Version | Previous Version | Text Only | Print | Product List | Glossary On
Versions: 1 2 3 4 5 6 7 8 9 10 11 12 13 14 15 16 17 18 19 20 21 22 23 24 25 26 27 28 29 30 31 32 33 34 35 36 37 38 39 40 41 42 43 44 45 46
000
FTUS41 KRNK 231803 RRA
TAFLYH
TAF
KLYH 231803Z 2318/2418 03015G27KT 6SM -RA OVC013
     FM232100 02012G22KT 5SM -RA BR OVC008
     FM240100 36010KT 5SM BR BKN015
     FM240600 00000KT 5SM BR OVC019
     FM241100 34007G15KT P6SM SCT040
     FM241700 32012G25KT P6SM SCT040=

USA.gov is the U.S. government's official web portal to all federal, state and local government web resources and services.